createdAt,value
2018-07-02T00:00:26.850Z,25.59
2018-07-02T00:01:27.205Z,25.57
2018-07-02T00:02:26.925Z,25.53
2018-07-02T00:03:27.244Z,25.46
2018-07-02T00:04:26.995Z,25.46
2018-07-02T00:05:27.071Z,25.44
2018-07-02T00:06:27.032Z,25.44
2018-07-02T00:07:27.057Z,25.34
2018-07-02T00:08:27.090Z,25.44
2018-07-02T00:09:27.128Z,25.39
2018-07-02T00:10:27.448Z,25.35
2018-07-02T00:11:27.180Z,25.35
2018-07-02T00:12:27.211Z,25.27
2018-07-02T00:13:27.254Z,25.23
2018-07-02T00:14:27.274Z,25.20
2018-07-02T00:15:27.324Z,25.24
2018-07-02T00:16:27.338Z,25.27
2018-07-02T00:17:27.620Z,25.22
2018-07-02T00:18:27.392Z,25.17
2018-07-02T00:19:27.424Z,25.14
2018-07-02T00:20:27.454Z,25.12
2018-07-02T00:21:27.485Z,25.08
2018-07-02T00:22:27.552Z,25.17
2018-07-02T00:23:27.553Z,25.14
2018-07-02T00:24:27.839Z,25.14
2018-07-02T00:25:27.612Z,25.11
2018-07-02T00:26:27.638Z,25.16
2018-07-02T00:27:27.668Z,25.07
2018-07-02T00:28:27.696Z,25.04
2018-07-02T00:29:27.727Z,25.08
2018-07-02T00:30:27.764Z,25.02
2018-07-02T00:31:28.044Z,24.98
2018-07-02T00:32:27.831Z,24.99
2018-07-02T00:33:27.888Z,24.98
2018-07-02T00:34:27.881Z,24.84
2018-07-02T00:35:27.908Z,24.86
2018-07-02T00:36:27.940Z,24.87
2018-07-02T00:37:27.970Z,24.84
2018-07-02T00:38:28.255Z,24.87
2018-07-02T00:39:28.055Z,24.83
2018-07-02T00:40:28.065Z,24.84
2018-07-02T00:41:28.095Z,24.74
2018-07-02T00:42:28.131Z,24.86
2018-07-02T00:43:28.155Z,24.68
2018-07-02T00:44:28.187Z,24.75
2018-07-02T00:45:28.466Z,24.70
2018-07-02T00:46:28.243Z,24.75
2018-07-02T00:47:28.276Z,24.70
2018-07-02T00:48:28.306Z,24.71
2018-07-02T00:49:28.366Z,24.68
2018-07-02T00:50:28.365Z,24.63
2018-07-02T00:51:28.443Z,24.71
2018-07-02T00:52:28.684Z,24.75
2018-07-02T00:53:28.458Z,24.71
2018-07-02T00:54:28.485Z,24.59
2018-07-02T00:55:28.529Z,24.61
2018-07-02T00:56:28.579Z,24.63
2018-07-02T00:57:28.582Z,24.59
2018-07-02T00:58:28.621Z,24.59
2018-07-02T00:59:28.884Z,24.61
2018-07-02T01:00:28.679Z,24.55
2018-07-02T01:01:28.696Z,24.61
2018-07-02T01:02:28.727Z,24.55
2018-07-02T01:03:28.829Z,24.48
2018-07-02T01:04:28.788Z,24.49
2018-07-02T01:05:28.821Z,24.52
2018-07-02T01:06:29.148Z,24.46
2018-07-02T01:07:28.929Z,24.46
2018-07-02T01:08:28.908Z,24.51
2018-07-02T01:09:28.950Z,24.44
2018-07-02T01:10:28.983Z,24.39
2018-07-02T01:11:29.004Z,24.34
2018-07-02T01:12:29.028Z,24.34
2018-07-02T01:13:29.321Z,24.33
2018-07-02T01:14:29.088Z,24.27
2018-07-02T01:15:29.113Z,24.27
2018-07-02T01:16:29.165Z,24.34
2018-07-02T01:17:29.177Z,24.23
2018-07-02T01:18:29.354Z,24.26
2018-07-02T01:19:29.234Z,24.09
2018-07-02T01:20:29.520Z,24.12
2018-07-02T01:21:29.304Z,24.18
2018-07-02T01:23:29.383Z,24.18
2018-07-02T01:24:29.398Z,24.08
2018-07-02T01:25:29.414Z,24.05
2018-07-02T01:26:29.694Z,24.11
2018-07-02T01:27:29.495Z,24.08
2018-07-02T01:28:29.506Z,24.06
2018-07-02T01:29:29.536Z,24.04
2018-07-02T01:30:29.567Z,23.97
2018-07-02T01:31:29.618Z,23.93
2018-07-02T01:32:29.929Z,23.94
2018-07-02T01:33:29.661Z,23.94
2018-07-02T01:34:29.692Z,23.96
2018-07-02T01:35:29.722Z,23.93
2018-07-02T01:36:29.775Z,23.97
2018-07-02T01:37:29.793Z,23.97
2018-07-02T01:38:30.122Z,23.84
2018-07-02T01:39:29.899Z,23.89
2018-07-02T01:40:29.914Z,23.94
2018-07-02T01:41:29.923Z,23.86
2018-07-02T01:42:29.978Z,23.90
2018-07-02T01:43:29.976Z,23.87
2018-07-02T01:44:30.253Z,23.92
2018-07-02T01:45:30.046Z,23.87
2018-07-02T01:46:30.074Z,23.81
2018-07-02T01:47:30.102Z,23.74
2018-07-02T01:48:30.132Z,23.74
2018-07-02T01:49:30.163Z,23.78
2018-07-02T01:50:30.443Z,23.77
2018-07-02T01:51:30.226Z,23.75
2018-07-02T01:52:30.263Z,23.69
2018-07-02T01:53:30.296Z,23.68
2018-07-02T01:54:30.333Z,23.68
2018-07-02T01:55:30.416Z,23.62
2018-07-02T01:56:30.638Z,23.64
2018-07-02T01:57:30.418Z,23.59
2018-07-02T01:58:30.495Z,23.71
2018-07-02T01:59:30.478Z,23.52
2018-07-02T02:00:30.562Z,23.59
2018-07-02T02:01:30.542Z,23.52
2018-07-02T02:02:30.878Z,23.50
2018-07-02T02:03:30.628Z,23.53
2018-07-02T02:04:30.636Z,23.57
2018-07-02T02:05:30.670Z,23.49
2018-07-02T02:06:30.705Z,23.45
2018-07-02T02:07:30.733Z,23.47
2018-07-02T02:08:31.015Z,23.45
2018-07-02T02:09:30.802Z,23.47
2018-07-02T02:10:30.829Z,23.44
2018-07-02T02:11:30.866Z,23.45
2018-07-02T02:12:30.893Z,23.41
2018-07-02T02:13:30.925Z,23.42
2018-07-02T02:14:31.259Z,23.32
2018-07-02T02:15:31.017Z,23.29
2018-07-02T02:16:31.016Z,23.38
2018-07-02T02:17:31.051Z,23.38
2018-07-02T02:18:31.083Z,23.31
2018-07-02T02:19:31.112Z,23.29
2018-07-02T02:20:31.444Z,23.29
2018-07-02T02:21:31.192Z,23.38
2018-07-02T02:22:31.209Z,23.34
2018-07-02T02:23:31.242Z,23.25
2018-07-02T02:24:31.274Z,23.23
2018-07-02T02:25:31.308Z,23.26
2018-07-02T02:26:31.586Z,23.23
2018-07-02T02:27:31.373Z,23.25
2018-07-02T02:28:31.400Z,23.14
2018-07-02T02:29:31.431Z,23.15
2018-07-02T02:30:31.460Z,23.14
2018-07-02T02:31:31.539Z,23.18
2018-07-02T02:32:31.779Z,23.15
2018-07-02T02:33:31.558Z,23.11
2018-07-02T02:34:31.588Z,23.09
2018-07-02T02:35:31.618Z,23.04
2018-07-02T02:36:31.755Z,23.04
2018-07-02T02:37:31.720Z,23.11
2018-07-02T02:38:31.969Z,23.11
2018-07-02T02:39:31.747Z,23.11
2018-07-02T02:40:31.787Z,23.06
2018-07-02T02:41:31.823Z,23.06
2018-07-02T02:42:31.838Z,23.01
2018-07-02T02:43:31.874Z,23.04
2018-07-02T02:44:31.910Z,22.97
2018-07-02T02:45:32.234Z,23.01
2018-07-02T02:46:31.968Z,23.01
2018-07-02T02:47:32.001Z,23.06
2018-07-02T02:48:32.040Z,23.04
2018-07-02T02:49:32.057Z,22.93
2018-07-02T02:50:32.098Z,22.99
2018-07-02T02:51:32.125Z,23.00
2018-07-02T02:52:32.454Z,22.99
2018-07-02T02:53:32.186Z,22.94
2018-07-02T02:54:32.233Z,22.85
2018-07-02T02:55:32.252Z,22.96
2018-07-02T02:56:32.288Z,22.93
2018-07-02T02:57:32.358Z,22.89
2018-07-02T02:58:32.352Z,22.82
2018-07-02T02:59:32.629Z,22.93
2018-07-02T03:00:32.406Z,22.84
2018-07-02T03:01:32.440Z,22.85
2018-07-02T03:02:32.490Z,22.82
2018-07-02T03:03:32.498Z,22.74
2018-07-02T03:04:32.533Z,22.74
2018-07-02T03:05:32.571Z,22.70
2018-07-02T03:06:32.850Z,22.75
2018-07-02T03:07:32.624Z,22.72
2018-07-02T03:08:32.656Z,22.74
2018-07-02T03:09:32.688Z,22.76
2018-07-02T03:10:32.726Z,22.74
2018-07-02T03:11:32.749Z,22.74
2018-07-02T03:12:32.786Z,22.72
2018-07-02T03:13:33.064Z,22.57
2018-07-02T03:14:32.845Z,22.57
2018-07-02T03:15:32.881Z,22.61
2018-07-02T03:16:32.910Z,22.66
2018-07-02T03:17:32.936Z,22.56
2018-07-02T03:18:32.969Z,22.59
2018-07-02T03:19:33.003Z,22.63
2018-07-02T03:20:33.341Z,22.57
2018-07-02T03:21:33.063Z,22.59
2018-07-02T03:22:33.097Z,22.61
2018-07-02T03:23:33.134Z,22.59
2018-07-02T03:24:33.162Z,22.54
2018-07-02T03:25:33.186Z,22.54
2018-07-02T03:26:33.216Z,22.57
2018-07-02T03:27:33.254Z,22.46
2018-07-02T03:28:33.283Z,22.56
2018-07-02T03:29:33.310Z,22.49
2018-07-02T03:30:33.358Z,22.46
2018-07-02T03:31:33.377Z,22.46
2018-07-02T03:32:33.418Z,22.57
2018-07-02T03:33:33.752Z,22.52
2018-07-02T03:34:33.479Z,22.48
2018-07-02T03:35:33.516Z,22.46
2018-07-02T03:36:33.543Z,22.52
2018-07-02T03:37:33.662Z,22.48
2018-07-02T03:38:33.589Z,22.45
2018-07-02T03:39:33.620Z,22.46
2018-07-02T03:40:33.906Z,22.48
2018-07-02T03:41:33.684Z,22.48
2018-07-02T03:42:33.717Z,22.49
2018-07-02T03:43:33.759Z,22.52
2018-07-02T03:44:33.777Z,22.48
2018-07-02T03:45:33.810Z,22.48
2018-07-02T03:46:33.840Z,22.46
2018-07-02T03:47:34.135Z,22.44
2018-07-02T03:48:33.904Z,22.36
2018-07-02T03:49:33.935Z,22.31
2018-07-02T03:50:33.972Z,22.24
2018-07-02T03:51:34.040Z,22.24
2018-07-02T03:52:34.038Z,22.19
2018-07-02T03:53:34.058Z,22.15
2018-07-02T03:54:34.353Z,22.17
2018-07-02T03:55:34.132Z,22.12
2018-07-02T03:56:34.152Z,22.09
2018-07-02T03:57:34.185Z,22.11
2018-07-02T03:58:34.226Z,22.09
2018-07-02T03:59:34.243Z,22.09
2018-07-02T04:00:34.586Z,22.14
2018-07-02T04:01:34.308Z,22.08
2018-07-02T04:02:34.364Z,22.11
2018-07-02T04:03:34.366Z,22.14
2018-07-02T04:04:34.417Z,22.06
2018-07-02T04:05:34.428Z,22.12
2018-07-02T04:06:34.765Z,22.11
2018-07-02T04:07:34.497Z,22.09
2018-07-02T04:08:34.536Z,22.09
2018-07-02T04:09:34.591Z,22.05
2018-07-02T04:10:34.586Z,22.14
2018-07-02T04:11:34.616Z,22.08
2018-07-02T04:12:34.897Z,22.09
2018-07-02T04:13:34.725Z,22.08
2018-07-02T04:14:34.712Z,22.08
2018-07-02T04:15:34.742Z,22.04
2018-07-02T04:16:34.768Z,22.02
2018-07-02T04:17:34.817Z,22.17
2018-07-02T04:18:35.100Z,22.11
2018-07-02T04:19:34.862Z,22.09
2018-07-02T04:20:34.893Z,22.06
2018-07-02T04:21:34.924Z,22.05
2018-07-02T04:22:34.955Z,22.02
2018-07-02T04:23:35.000Z,22.05
2018-07-02T04:24:35.318Z,22.01
2018-07-02T04:25:35.053Z,22.01
2018-07-02T04:26:35.084Z,22.01
2018-07-02T04:27:35.113Z,22.01
2018-07-02T04:28:35.140Z,22.01
2018-07-02T04:29:35.170Z,22.08
2018-07-02T04:30:35.467Z,22.08
2018-07-02T04:31:35.239Z,22.11
2018-07-02T04:32:35.310Z,22.09
2018-07-02T04:33:35.294Z,22.12
2018-07-02T04:34:35.357Z,22.15
2018-07-02T04:35:35.377Z,22.17
2018-07-02T04:36:35.705Z,22.12
2018-07-02T04:37:35.421Z,22.24
2018-07-02T04:38:35.477Z,22.23
2018-07-02T04:39:35.523Z,22.26
2018-07-02T04:40:35.517Z,22.29
2018-07-02T04:41:35.551Z,22.26
2018-07-02T04:42:35.828Z,22.20
2018-07-02T04:43:35.611Z,22.26
2018-07-02T04:44:35.638Z,22.20
2018-07-02T04:45:35.666Z,22.15
2018-07-02T04:46:35.698Z,22.15
2018-07-02T04:47:35.747Z,22.19
2018-07-02T04:48:36.014Z,22.15
2018-07-02T04:49:35.792Z,22.23
2018-07-02T04:50:35.825Z,22.29
2018-07-02T04:51:35.855Z,22.20
2018-07-02T04:52:35.889Z,22.30
2018-07-02T04:53:35.915Z,22.30
2018-07-02T04:54:36.298Z,22.26
2018-07-02T04:55:35.999Z,22.30
2018-07-02T04:56:36.011Z,22.24
2018-07-02T04:57:36.041Z,22.36
2018-07-02T04:58:36.075Z,22.39
2018-07-02T04:59:36.129Z,22.35
2018-07-02T05:00:36.386Z,22.36
2018-07-02T05:01:36.167Z,22.42
2018-07-02T05:02:36.194Z,22.38
2018-07-02T05:03:36.226Z,22.41
2018-07-02T05:04:36.281Z,22.44
2018-07-02T05:05:36.288Z,22.41
2018-07-02T05:06:36.577Z,22.41
2018-07-02T05:07:36.405Z,22.39
2018-07-02T05:08:36.393Z,22.42
2018-07-02T05:09:36.459Z,22.36
2018-07-02T05:10:36.542Z,22.42
2018-07-02T05:11:36.481Z,22.46
2018-07-02T05:12:36.759Z,22.45
2018-07-02T05:22:37.134Z,22.52
2018-07-02T05:23:36.860Z,22.49
2018-07-02T05:24:36.900Z,22.51
2018-07-02T05:25:36.937Z,22.44
2018-07-02T05:26:36.951Z,22.51
2018-07-02T05:27:36.977Z,22.59
2018-07-02T05:28:37.011Z,22.56
2018-07-02T05:29:37.339Z,22.64
2018-07-02T05:30:37.077Z,22.66
2018-07-02T05:31:37.102Z,22.66
2018-07-02T05:32:37.139Z,22.64
2018-07-02T05:33:37.173Z,22.64
2018-07-02T05:34:37.260Z,22.67
2018-07-02T05:35:37.276Z,22.72
2018-07-02T05:36:37.511Z,22.75
2018-07-02T05:37:37.311Z,22.70
2018-07-02T05:38:37.320Z,22.72
2018-07-02T05:39:37.354Z,22.64
2018-07-02T05:40:37.390Z,22.70
2018-07-02T05:41:37.520Z,22.75
2018-07-02T05:42:37.448Z,22.74
2018-07-02T05:43:37.731Z,22.81
2018-07-02T05:44:37.510Z,22.86
2018-07-02T05:45:37.547Z,22.86
2018-07-02T05:46:37.577Z,22.97
2018-07-02T05:47:37.609Z,22.89
2018-07-02T05:48:37.681Z,22.97
2018-07-02T05:49:37.667Z,23.00
2018-07-02T05:50:38.000Z,23.01
2018-07-02T05:51:37.738Z,23.06
2018-07-02T05:52:37.768Z,23.07
2018-07-02T05:53:37.802Z,23.09
2018-07-02T05:54:37.848Z,23.18
2018-07-02T05:55:37.866Z,23.15
2018-07-02T05:56:37.889Z,23.25
2018-07-02T05:57:38.230Z,23.26
2018-07-02T05:58:37.954Z,23.32
2018-07-02T05:59:37.999Z,23.44
2018-07-02T06:00:38.174Z,23.44
2018-07-02T06:01:38.052Z,23.45
2018-07-02T06:02:38.085Z,23.59
2018-07-02T06:03:38.116Z,23.57
2018-07-02T06:04:38.450Z,23.67
2018-07-02T06:05:38.179Z,23.64
2018-07-02T06:06:38.210Z,23.71
2018-07-02T06:07:38.258Z,23.71
2018-07-02T06:08:38.275Z,23.78
2018-07-02T06:09:38.308Z,23.77
2018-07-02T06:10:38.346Z,23.79
2018-07-02T06:11:38.624Z,23.90
2018-07-02T06:12:38.556Z,23.84
2018-07-02T06:13:38.439Z,23.86
2018-07-02T06:14:38.473Z,23.84
2018-07-02T06:15:38.505Z,23.84
2018-07-02T06:16:38.554Z,23.97
2018-07-02T06:17:38.569Z,23.99
2018-07-02T06:18:38.852Z,23.94
2018-07-02T06:19:38.635Z,24.04
2018-07-02T06:20:38.664Z,24.08
2018-07-02T06:21:38.700Z,24.05
2018-07-02T06:22:38.728Z,24.12
2018-07-02T06:23:38.771Z,24.06
2018-07-02T06:24:38.808Z,24.16
2018-07-02T06:25:39.075Z,24.15
2018-07-02T06:26:38.859Z,24.18
2018-07-02T06:27:38.892Z,24.16
2018-07-02T06:28:39.025Z,24.16
2018-07-02T06:29:38.958Z,24.26
2018-07-02T06:30:38.991Z,24.23
2018-07-02T06:31:39.034Z,24.31
2018-07-02T06:32:39.359Z,24.33
2018-07-02T06:33:39.096Z,24.31
2018-07-02T06:34:39.123Z,24.34
2018-07-02T06:35:39.155Z,24.37
2018-07-02T06:36:39.186Z,24.37
2018-07-02T06:37:39.218Z,24.39
2018-07-02T06:38:39.554Z,24.48
2018-07-02T06:39:39.289Z,24.41
2018-07-02T06:40:39.334Z,24.49
2018-07-02T06:41:39.355Z,24.51
2018-07-02T06:42:39.391Z,24.48
2018-07-02T06:43:39.419Z,24.53
2018-07-02T06:44:39.700Z,24.52
2018-07-02T06:45:39.483Z,24.64
2018-07-02T06:46:39.514Z,24.60
2018-07-02T06:47:39.549Z,24.64
2018-07-02T06:48:39.581Z,24.59
2018-07-02T06:49:39.615Z,24.64
2018-07-02T06:50:39.896Z,24.59
2018-07-02T06:51:39.688Z,24.61
2018-07-02T06:52:39.723Z,24.70
2018-07-02T06:53:39.756Z,24.74
2018-07-02T06:54:39.782Z,24.71
2018-07-02T06:55:39.818Z,24.71
2018-07-02T06:56:40.094Z,24.77
2018-07-02T06:57:39.881Z,24.80
2018-07-02T06:58:39.921Z,24.79
2018-07-02T06:59:39.946Z,24.80
2018-07-02T07:00:39.975Z,24.89
2018-07-02T07:01:40.019Z,24.89
2018-07-02T07:02:40.298Z,24.93
2018-07-02T07:03:40.080Z,24.86
2018-07-02T07:04:40.114Z,24.87
2018-07-02T07:05:40.160Z,24.89
2018-07-02T07:06:40.195Z,24.99
2018-07-02T07:07:40.220Z,25.02
2018-07-02T07:08:40.515Z,25.01
2018-07-02T07:09:40.277Z,25.04
2018-07-02T07:10:40.325Z,24.97
2018-07-02T07:11:40.344Z,25.01
2018-07-02T07:12:40.382Z,25.04
2018-07-02T07:13:40.416Z,25.02
2018-07-02T07:14:40.759Z,24.99
2018-07-02T07:15:40.575Z,25.11
2018-07-02T07:16:40.516Z,24.99
2018-07-02T07:17:40.542Z,25.07
2018-07-02T07:18:40.580Z,25.11
2018-07-02T07:19:40.610Z,25.11
2018-07-02T07:20:40.643Z,25.14
2018-07-02T07:21:40.928Z,25.12
2018-07-02T07:22:40.729Z,25.17
2018-07-02T07:23:40.763Z,25.08
2018-07-02T07:24:40.774Z,25.08
2018-07-02T07:25:40.816Z,25.24
2018-07-02T07:26:40.842Z,25.23
2018-07-02T07:27:40.875Z,25.27
2018-07-02T07:28:41.158Z,25.19
2018-07-02T07:29:40.967Z,25.26
2018-07-02T07:30:40.976Z,25.22
2018-07-02T07:31:41.015Z,25.29
2018-07-02T07:32:41.043Z,25.26
2018-07-02T07:33:41.081Z,25.23
2018-07-02T07:34:41.420Z,25.26
2018-07-02T07:35:41.142Z,25.29
2018-07-02T07:36:41.174Z,25.35
2018-07-02T07:37:41.214Z,25.42
2018-07-02T07:38:41.295Z,25.34
2018-07-02T07:39:41.281Z,25.38
2018-07-02T07:40:41.559Z,25.46
2018-07-02T07:41:41.345Z,25.41
2018-07-02T07:42:41.380Z,25.41
2018-07-02T07:43:41.416Z,25.44
2018-07-02T07:44:41.441Z,25.36
2018-07-02T07:45:41.485Z,25.45
2018-07-02T07:46:41.765Z,25.41
2018-07-02T07:47:41.546Z,25.44
2018-07-02T07:48:41.626Z,25.41
2018-07-02T07:49:41.611Z,25.39
2018-07-02T07:50:41.644Z,25.44
2018-07-02T07:51:41.720Z,25.39
2018-07-02T07:52:41.960Z,25.48
2018-07-02T07:53:41.743Z,25.49
2018-07-02T07:54:41.782Z,25.46
2018-07-02T07:55:41.818Z,25.48
2018-07-02T07:56:41.851Z,25.45
2018-07-02T07:57:41.879Z,25.46
2018-07-02T07:58:42.168Z,25.49
2018-07-02T07:59:41.950Z,25.49
2018-07-02T08:00:41.984Z,25.51
2018-07-02T08:01:42.016Z,25.53
2018-07-02T08:02:42.047Z,25.54
2018-07-02T08:03:42.151Z,25.56
2018-07-02T08:04:42.419Z,25.60
2018-07-02T08:05:42.152Z,25.57
2018-07-02T08:06:42.180Z,25.54
2018-07-02T08:07:42.217Z,25.61
2018-07-02T08:08:42.252Z,25.61
2018-07-02T08:09:42.283Z,25.56
2018-07-02T08:10:42.619Z,25.60
2018-07-02T08:11:42.363Z,25.66
2018-07-02T08:12:42.388Z,25.61
2018-07-02T08:13:42.416Z,25.63
2018-07-02T08:14:42.453Z,25.60
2018-07-02T08:15:42.489Z,25.66
2018-07-02T08:16:42.770Z,25.66
2018-07-02T08:17:42.552Z,25.60
2018-07-02T08:18:42.595Z,25.66
2018-07-02T08:19:42.622Z,25.64
2018-07-02T08:20:42.653Z,25.64
2018-07-02T08:21:42.701Z,25.64
2018-07-02T08:22:42.970Z,25.64
2018-07-02T08:23:42.781Z,25.67
2018-07-02T08:24:42.792Z,25.69
2018-07-02T08:25:42.822Z,25.66
2018-07-02T08:26:42.859Z,25.66
2018-07-02T08:27:42.890Z,25.71
2018-07-02T08:28:43.225Z,25.64
2018-07-02T08:29:42.959Z,25.74
2018-07-02T08:30:42.993Z,25.71
2018-07-02T08:31:43.026Z,25.71
2018-07-02T08:32:43.056Z,25.66
2018-07-02T08:33:43.093Z,25.75
2018-07-02T08:34:43.374Z,25.67
2018-07-02T08:35:43.164Z,25.79
2018-07-02T08:36:43.196Z,25.74
2018-07-02T08:37:43.229Z,25.75
2018-07-02T08:38:43.263Z,25.75
2018-07-02T08:39:43.294Z,25.79
2018-07-02T08:40:43.632Z,25.75
2018-07-02T08:41:43.363Z,25.75
2018-07-02T08:42:43.406Z,25.74
2018-07-02T08:43:43.428Z,25.75
2018-07-02T08:44:43.493Z,25.78
2018-07-02T08:45:43.498Z,25.79
2018-07-02T08:46:43.878Z,25.78
2018-07-02T08:47:43.616Z,25.82
2018-07-02T08:48:43.603Z,25.83
2018-07-02T08:49:43.631Z,25.83
2018-07-02T08:50:43.669Z,25.86
2018-07-02T08:51:43.701Z,25.76
2018-07-02T08:52:44.008Z,25.82
2018-07-02T08:53:43.771Z,25.82
2018-07-02T08:54:43.803Z,25.86
2018-07-02T08:55:43.839Z,25.83
2018-07-02T08:56:43.869Z,25.81
2018-07-02T08:57:43.910Z,25.82
2018-07-02T08:58:44.189Z,25.82
2018-07-02T08:59:43.973Z,25.83
2018-07-02T09:00:44.004Z,25.83
2018-07-02T09:01:44.050Z,25.83
2018-07-02T09:02:44.073Z,25.85
2018-07-02T09:03:44.109Z,25.83
2018-07-02T09:04:44.442Z,25.93
2018-07-02T09:05:44.209Z,25.94
2018-07-02T09:06:44.213Z,25.90
2018-07-02T09:07:44.241Z,25.96
2018-07-02T09:08:44.328Z,25.96
2018-07-02T09:09:44.309Z,25.96
2018-07-02T09:10:44.593Z,25.94
2018-07-02T09:11:44.377Z,25.94
2018-07-02T09:12:44.427Z,25.98
2018-07-02T09:13:44.445Z,25.96
2018-07-02T09:14:44.512Z,26.00
2018-07-02T09:15:44.515Z,25.89
2018-07-02T09:16:44.557Z,25.96
2018-07-02T09:17:44.590Z,25.97
2018-07-02T09:18:44.625Z,26.01
2018-07-02T09:19:44.650Z,25.91
2018-07-02T09:20:44.740Z,25.93
2018-07-02T09:21:45.026Z,25.98
2018-07-02T09:22:44.756Z,25.98
2018-07-02T09:23:44.798Z,26.03
2018-07-02T09:24:44.827Z,26.03
2018-07-02T09:25:44.854Z,26.00
2018-07-02T09:26:44.889Z,25.98
2018-07-02T09:27:45.177Z,26.01
2018-07-02T09:28:44.955Z,26.03
2018-07-02T09:29:45.004Z,26.00
2018-07-02T09:30:45.045Z,26.06
2018-07-02T09:31:45.057Z,26.01
2018-07-02T09:32:45.092Z,26.01
2018-07-02T09:33:45.380Z,26.00
2018-07-02T09:34:45.160Z,26.11
2018-07-02T09:35:45.201Z,26.01
2018-07-02T09:36:45.227Z,26.06
2018-07-02T09:37:45.267Z,26.01
2018-07-02T09:38:45.294Z,26.06
2018-07-02T09:39:45.633Z,26.01
2018-07-02T09:40:45.365Z,26.00
2018-07-02T09:41:45.401Z,26.06
2018-07-02T09:42:45.438Z,26.08
2018-07-02T09:43:45.465Z,26.06
2018-07-02T09:44:45.505Z,26.16
2018-07-02T09:45:45.784Z,26.09
2018-07-02T09:46:45.582Z,26.16
2018-07-02T09:47:45.604Z,26.19
2018-07-02T09:48:45.638Z,26.12
2018-07-02T09:49:45.672Z,26.16
2018-07-02T09:50:45.704Z,26.17
2018-07-02T09:51:46.038Z,26.16
2018-07-02T09:52:45.775Z,26.09
2018-07-02T09:53:45.812Z,26.19
2018-07-02T09:54:45.853Z,26.20
2018-07-02T09:55:46.078Z,26.16
2018-07-02T09:56:45.907Z,26.17
2018-07-02T09:57:46.209Z,26.06
2018-07-02T09:58:45.976Z,26.17
2018-07-02T09:59:46.019Z,26.21
2018-07-02T10:00:46.045Z,26.19
2018-07-02T10:01:46.083Z,26.20
2018-07-02T10:02:46.120Z,26.16
2018-07-02T10:03:46.505Z,26.16
2018-07-02T10:04:46.267Z,26.16
2018-07-02T10:05:46.214Z,26.21
2018-07-02T10:06:46.278Z,26.20
2018-07-02T10:07:46.283Z,26.20
2018-07-02T10:08:46.325Z,26.28
2018-07-02T10:09:46.602Z,26.29
2018-07-02T10:10:46.390Z,26.28
2018-07-02T10:11:46.471Z,26.21
2018-07-02T10:12:46.458Z,26.27
2018-07-02T10:13:46.491Z,26.21
2018-07-02T10:14:46.533Z,26.20
2018-07-02T10:15:46.811Z,26.31
2018-07-02T10:16:46.591Z,26.31
2018-07-02T10:17:46.627Z,26.24
2018-07-02T10:18:46.659Z,26.34
2018-07-02T10:19:46.693Z,26.23
2018-07-02T10:20:46.727Z,26.31
2018-07-02T10:21:47.065Z,26.31
2018-07-02T10:22:46.795Z,26.29
2018-07-02T10:23:46.833Z,26.23
2018-07-02T10:24:46.864Z,26.24
2018-07-02T10:25:46.963Z,26.32
2018-07-02T10:26:46.937Z,26.29
2018-07-02T10:27:47.220Z,26.24
2018-07-02T10:28:47.003Z,26.35
2018-07-02T10:29:47.045Z,26.32
2018-07-02T10:30:47.087Z,26.31
2018-07-02T10:31:47.110Z,26.31
2018-07-02T10:32:47.137Z,26.35
2018-07-02T10:33:47.425Z,26.34
2018-07-02T10:34:47.408Z,26.32
2018-07-02T10:35:47.247Z,26.36
2018-07-02T10:36:47.277Z,26.32
2018-07-02T10:37:47.311Z,26.39
2018-07-02T10:38:47.343Z,26.29
2018-07-02T10:39:47.678Z,26.32
2018-07-02T10:40:47.414Z,26.35
2018-07-02T10:41:47.447Z,26.36
2018-07-02T10:42:47.488Z,26.41
2018-07-02T10:43:47.515Z,26.36
2018-07-02T10:44:47.556Z,26.36
2018-07-02T10:45:47.889Z,26.39
2018-07-02T10:46:47.619Z,26.32
2018-07-02T10:47:47.654Z,26.42
2018-07-02T10:48:47.719Z,26.38
2018-07-02T10:49:47.719Z,26.39
2018-07-02T10:50:47.756Z,26.47
2018-07-02T10:51:48.090Z,26.42
2018-07-02T10:52:47.823Z,26.47
2018-07-02T10:53:47.861Z,26.46
2018-07-02T10:54:47.890Z,26.46
2018-07-02T10:55:48.017Z,26.39
2018-07-02T10:56:47.963Z,26.42
2018-07-02T10:57:48.250Z,26.42
2018-07-02T10:58:48.042Z,26.46
2018-07-02T10:59:48.075Z,26.47
2018-07-02T11:00:48.099Z,26.44
2018-07-02T11:01:48.182Z,26.44
2018-07-02T11:02:48.170Z,26.46
2018-07-02T11:03:48.515Z,26.39
2018-07-02T11:04:48.334Z,26.50
2018-07-02T11:05:48.270Z,26.49
2018-07-02T11:06:48.308Z,26.47
2018-07-02T11:07:48.338Z,26.47
2018-07-02T11:08:48.372Z,26.42
2018-07-02T11:09:48.705Z,26.47
2018-07-02T11:10:48.441Z,26.47
2018-07-02T11:11:48.479Z,26.56
2018-07-02T11:12:48.519Z,26.47
2018-07-02T11:13:48.549Z,26.53
2018-07-02T11:14:48.580Z,26.53
2018-07-02T11:15:48.867Z,26.50
2018-07-02T11:16:48.646Z,26.51
2018-07-02T11:17:48.698Z,26.60
2018-07-02T11:18:48.717Z,26.54
2018-07-02T11:19:48.764Z,26.56
2018-07-02T11:20:48.787Z,26.59
2018-07-02T11:21:49.118Z,26.53
2018-07-02T11:22:48.868Z,26.61
2018-07-02T11:23:48.895Z,26.54
2018-07-02T11:24:48.998Z,26.61
2018-07-02T11:25:48.959Z,26.54
2018-07-02T11:26:48.993Z,26.53
2018-07-02T11:27:49.278Z,26.47
2018-07-02T11:28:49.064Z,26.56
2018-07-02T11:29:49.098Z,26.53
2018-07-02T11:30:49.128Z,26.57
2018-07-02T11:31:49.169Z,26.64
2018-07-02T11:32:49.197Z,26.61
2018-07-02T11:33:49.535Z,26.61
2018-07-02T11:34:49.278Z,26.60
2018-07-02T11:35:49.299Z,26.60
2018-07-02T11:36:49.345Z,26.60
2018-07-02T11:37:49.368Z,26.59
2018-07-02T11:38:49.409Z,26.61
2018-07-02T11:39:49.702Z,26.60
2018-07-02T11:40:49.475Z,26.60
2018-07-02T11:41:49.507Z,26.57
2018-07-02T11:42:49.540Z,26.65
2018-07-02T11:43:49.576Z,26.57
2018-07-02T11:44:49.623Z,26.61
2018-07-02T11:45:49.894Z,26.60
2018-07-02T11:46:49.678Z,26.64
2018-07-02T11:47:49.718Z,26.65
2018-07-02T11:48:49.755Z,26.69
2018-07-02T11:49:49.792Z,26.71
2018-07-02T11:50:49.824Z,26.64
2018-07-02T11:51:50.104Z,26.72
2018-07-02T11:52:49.889Z,26.75
2018-07-02T11:53:49.932Z,26.71
2018-07-02T11:54:49.955Z,26.73
2018-07-02T11:55:50.001Z,26.72
2018-07-02T11:56:50.028Z,26.73
2018-07-02T11:57:50.312Z,26.72
2018-07-02T11:58:50.094Z,26.73
2018-07-02T11:59:50.128Z,26.72
2018-07-02T12:00:50.164Z,26.71
2018-07-02T12:01:50.206Z,26.73
2018-07-02T12:02:50.232Z,26.73
2018-07-02T12:03:50.521Z,26.78
2018-07-02T12:04:50.302Z,26.72
2018-07-02T12:05:50.340Z,26.73
2018-07-02T12:06:50.369Z,26.78
2018-07-02T12:07:50.404Z,26.76
2018-07-02T12:08:50.437Z,26.78
2018-07-02T12:09:50.769Z,26.72
2018-07-02T12:10:50.508Z,26.72
2018-07-02T12:11:50.557Z,26.75
2018-07-02T12:12:50.583Z,26.81
2018-07-02T12:13:50.617Z,26.83
2018-07-02T12:14:50.647Z,26.79
2018-07-02T12:15:50.985Z,26.81
2018-07-02T12:16:50.722Z,26.84
2018-07-02T12:17:50.757Z,26.86
2018-07-02T12:18:50.787Z,26.84
2018-07-02T12:19:50.818Z,26.83
2018-07-02T12:20:50.854Z,26.87
2018-07-02T12:21:51.138Z,26.90
2018-07-02T12:22:50.929Z,26.84
2018-07-02T12:23:50.957Z,26.87
2018-07-02T12:24:50.996Z,26.87
2018-07-02T12:25:51.026Z,26.84
2018-07-02T12:26:51.062Z,26.91
2018-07-02T12:27:51.347Z,26.88
2018-07-02T12:28:51.160Z,26.94
2018-07-02T12:29:51.164Z,26.84
2018-07-02T12:30:51.203Z,26.93
2018-07-02T12:31:51.296Z,26.90
2018-07-02T12:32:51.267Z,26.93
2018-07-02T12:33:51.554Z,26.88
2018-07-02T12:34:51.338Z,26.87
2018-07-02T12:35:51.623Z,26.90
2018-07-02T12:36:51.407Z,26.90
2018-07-02T12:37:51.440Z,26.87
2018-07-02T12:38:51.482Z,26.88
2018-07-02T12:39:51.815Z,26.90
2018-07-02T12:40:51.552Z,26.86
2018-07-02T12:41:51.596Z,26.91
2018-07-02T12:42:51.619Z,26.97
2018-07-02T12:43:51.655Z,26.90
2018-07-02T12:44:51.684Z,26.94
2018-07-02T12:45:51.973Z,26.88
2018-07-02T12:46:51.771Z,26.94
2018-07-02T12:47:51.787Z,26.93
2018-07-02T12:48:51.827Z,26.94
2018-07-02T12:49:51.859Z,26.91
2018-07-02T12:50:51.891Z,26.98
2018-07-02T12:51:52.229Z,27.01
2018-07-02T12:52:51.960Z,26.93
2018-07-02T12:53:51.996Z,26.96
2018-07-02T12:54:52.034Z,26.94
2018-07-02T12:55:52.065Z,26.98
2018-07-02T12:56:52.100Z,26.98
2018-07-02T12:57:52.384Z,26.97
2018-07-02T12:58:52.171Z,27.02
2018-07-02T12:59:52.214Z,26.98
2018-07-02T13:00:52.236Z,26.97
2018-07-02T13:01:52.275Z,27.05
2018-07-02T13:02:52.308Z,26.94